sensor_id;sensor_type;location;lat;lon;timestamp;P1;durP1;ratioP1;P2;durP2;ratioP2
79128;SDS011;68529;43.286;23.360;2023-07-08T00:00:38;7.57;;;6.88;;
79128;SDS011;68529;43.286;23.360;2023-07-08T00:03:03;10.00;;;7.40;;
79128;SDS011;68529;43.286;23.360;2023-07-08T00:05:28;8.13;;;7.03;;
79128;SDS011;68529;43.286;23.360;2023-07-08T00:07:54;9.30;;;7.32;;
79128;SDS011;68529;43.286;23.360;2023-07-08T00:10:26;11.98;;;7.30;;
79128;SDS011;68529;43.286;23.360;2023-07-08T00:12:54;8.82;;;7.25;;
79128;SDS011;68529;43.286;23.360;2023-07-08T00:15:21;7.45;;;6.55;;
79128;SDS011;68529;43.286;23.360;2023-07-08T00:17:50;7.88;;;7.22;;
79128;SDS011;68529;43.286;23.360;2023-07-08T00:23:02;7.32;;;6.65;;
79128;SDS011;68529;43.286;23.360;2023-07-08T00:25:28;7.18;;;6.60;;
79128;SDS011;68529;43.286;23.360;2023-07-08T00:27:53;7.45;;;6.75;;
79128;SDS011;68529;43.286;23.360;2023-07-08T00:32:46;7.65;;;6.95;;
79128;SDS011;68529;43.286;23.360;2023-07-08T00:35:12;7.60;;;6.90;;
79128;SDS011;68529;43.286;23.360;2023-07-08T00:37:37;8.10;;;7.30;;
79128;SDS011;68529;43.286;23.360;2023-07-08T00:40:14;8.02;;;7.20;;
79128;SDS011;68529;43.286;23.360;2023-07-08T00:42:42;7.35;;;6.63;;
79128;SDS011;68529;43.286;23.360;2023-07-08T00:45:56;7.38;;;6.68;;
79128;SDS011;68529;43.286;23.360;2023-07-08T00:48:00;8.13;;;7.43;;
79128;SDS011;68529;43.286;23.360;2023-07-08T00:50:37;10.90;;;7.20;;
79128;SDS011;68529;43.286;23.360;2023-07-08T00:58:34;7.97;;;6.97;;
79128;SDS011;68529;43.286;23.360;2023-07-08T01:01:04;7.82;;;7.13;;
79128;SDS011;68529;43.286;23.360;2023-07-08T01:03:31;7.03;;;6.30;;
79128;SDS011;68529;43.286;23.360;2023-07-08T01:06:01;8.35;;;6.75;;
79128;SDS011;68529;43.286;23.360;2023-07-08T01:08:28;7.65;;;6.95;;
79128;SDS011;68529;43.286;23.360;2023-07-08T01:10:57;7.38;;;6.70;;
79128;SDS011;68529;43.286;23.360;2023-07-08T01:13:27;7.78;;;7.07;;
79128;SDS011;68529;43.286;23.360;2023-07-08T01:16:03;7.40;;;6.70;;
79128;SDS011;68529;43.286;23.360;2023-07-08T01:18:29;8.20;;;7.07;;
79128;SDS011;68529;43.286;23.360;2023-07-08T01:20:56;7.50;;;6.80;;
79128;SDS011;68529;43.286;23.360;2023-07-08T01:23:26;7.88;;;7.07;;
79128;SDS011;68529;43.286;23.360;2023-07-08T01:25:52;7.82;;;7.22;;
79128;SDS011;68529;43.286;23.360;2023-07-08T01:28:17;8.40;;;6.93;;
79128;SDS011;68529;43.286;23.360;2023-07-08T01:30:43;7.88;;;7.13;;
79128;SDS011;68529;43.286;23.360;2023-07-08T01:33:16;7.45;;;6.75;;
79128;SDS011;68529;43.286;23.360;2023-07-08T01:35:44;9.25;;;7.03;;
79128;SDS011;68529;43.286;23.360;2023-07-08T01:38:10;8.65;;;7.50;;
79128;SDS011;68529;43.286;23.360;2023-07-08T01:40:48;8.00;;;7.25;;
79128;SDS011;68529;43.286;23.360;2023-07-08T01:43:15;7.82;;;7.13;;
79128;SDS011;68529;43.286;23.360;2023-07-08T01:45:40;7.93;;;7.22;;
79128;SDS011;68529;43.286;23.360;2023-07-08T01:48:08;9.93;;;6.85;;
79128;SDS011;68529;43.286;23.360;2023-07-08T01:50:37;7.55;;;6.88;;
79128;SDS011;68529;43.286;23.360;2023-07-08T01:53:11;8.20;;;7.40;;
79128;SDS011;68529;43.286;23.360;2023-07-08T01:55:40;8.20;;;7.07;;
79128;SDS011;68529;43.286;23.360;2023-07-08T01:58:05;7.45;;;6.55;;
79128;SDS011;68529;43.286;23.360;2023-07-08T02:00:30;8.02;;;7.25;;
79128;SDS011;68529;43.286;23.360;2023-07-08T02:02:56;9.05;;;7.13;;
79128;SDS011;68529;43.286;23.360;2023-07-08T02:05:22;8.45;;;7.50;;
79128;SDS011;68529;43.286;23.360;2023-07-08T02:07:48;7.90;;;7.18;;
79128;SDS011;68529;43.286;23.360;2023-07-08T02:10:13;7.93;;;7.22;;
79128;SDS011;68529;43.286;23.360;2023-07-08T02:12:39;8.77;;;7.55;;
79128;SDS011;68529;43.286;23.360;2023-07-08T02:15:05;8.88;;;7.28;;
79128;SDS011;68529;43.286;23.360;2023-07-08T02:17:31;8.10;;;7.32;;
79128;SDS011;68529;43.286;23.360;2023-07-08T02:19:57;11.50;;;6.95;;
79128;SDS011;68529;43.286;23.360;2023-07-08T02:22:22;10.70;;;7.80;;
79128;SDS011;68529;43.286;23.360;2023-07-08T02:24:48;9.30;;;7.22;;
79128;SDS011;68529;43.286;23.360;2023-07-08T02:27:14;8.25;;;7.45;;
79128;SDS011;68529;43.286;23.360;2023-07-08T02:29:39;7.85;;;7.15;;
79128;SDS011;68529;43.286;23.360;2023-07-08T02:32:05;8.00;;;7.20;;
79128;SDS011;68529;43.286;23.360;2023-07-08T02:34:31;8.77;;;7.18;;
79128;SDS011;68529;43.286;23.360;2023-07-08T02:36:57;10.48;;;7.50;;
79128;SDS011;68529;43.286;23.360;2023-07-08T02:39:22;8.07;;;6.55;;
79128;SDS011;68529;43.286;23.360;2023-07-08T02:41:48;7.32;;;6.60;;
79128;SDS011;68529;43.286;23.360;2023-07-08T02:44:14;7.72;;;6.93;;
79128;SDS011;68529;43.286;23.360;2023-07-08T02:46:39;7.32;;;6.63;;
79128;SDS011;68529;43.286;23.360;2023-07-08T02:49:04;7.28;;;6.57;;
79128;SDS011;68529;43.286;23.360;2023-07-08T02:51:30;8.50;;;6.40;;
79128;SDS011;68529;43.286;23.360;2023-07-08T02:53:56;7.75;;;6.63;;
79128;SDS011;68529;43.286;23.360;2023-07-08T02:56:22;7.70;;;6.93;;
79128;SDS011;68529;43.286;23.360;2023-07-08T02:58:48;7.05;;;6.45;;
79128;SDS011;68529;43.286;23.360;2023-07-08T03:01:14;6.90;;;6.38;;
79128;SDS011;68529;43.286;23.360;2023-07-08T03:03:43;7.93;;;6.32;;
79128;SDS011;68529;43.286;23.360;2023-07-08T03:06:10;6.57;;;6.03;;
79128;SDS011;68529;43.286;23.360;2023-07-08T03:08:35;8.55;;;6.40;;
79128;SDS011;68529;43.286;23.360;2023-07-08T03:11:02;7.35;;;6.65;;
79128;SDS011;68529;43.286;23.360;2023-07-08T03:13:29;6.45;;;5.55;;
79128;SDS011;68529;43.286;23.360;2023-07-08T03:15:55;6.63;;;6.00;;
79128;SDS011;68529;43.286;23.360;2023-07-08T03:18:22;7.03;;;6.05;;
79128;SDS011;68529;43.286;23.360;2023-07-08T03:20:52;8.10;;;6.32;;
79128;SDS011;68529;43.286;23.360;2023-07-08T03:23:18;7.47;;;5.88;;
79128;SDS011;68529;43.286;23.360;2023-07-08T03:25:44;7.57;;;6.18;;
79128;SDS011;68529;43.286;23.360;2023-07-08T03:28:10;6.45;;;5.85;;
79128;SDS011;68529;43.286;23.360;2023-07-08T03:30:40;7.60;;;5.93;;
79128;SDS011;68529;43.286;23.360;2023-07-08T03:33:09;8.00;;;6.30;;
79128;SDS011;68529;43.286;23.360;2023-07-08T03:35:35;6.90;;;6.20;;
79128;SDS011;68529;43.286;23.360;2023-07-08T03:38:01;6.45;;;5.95;;
79128;SDS011;68529;43.286;23.360;2023-07-08T03:40:28;6.25;;;5.75;;
79128;SDS011;68529;43.286;23.360;2023-07-08T03:42:53;6.07;;;5.53;;
79128;SDS011;68529;43.286;23.360;2023-07-08T03:45:19;8.27;;;5.93;;
79128;SDS011;68529;43.286;23.360;2023-07-08T03:47:44;5.97;;;5.47;;
79128;SDS011;68529;43.286;23.360;2023-07-08T03:50:17;5.90;;;5.30;;
79128;SDS011;68529;43.286;23.360;2023-07-08T03:52:44;8.18;;;5.72;;
79128;SDS011;68529;43.286;23.360;2023-07-08T03:55:11;7.30;;;5.22;;
79128;SDS011;68529;43.286;23.360;2023-07-08T03:57:37;6.07;;;5.57;;
79128;SDS011;68529;43.286;23.360;2023-07-08T04:00:03;8.27;;;5.50;;
79128;SDS011;68529;43.286;23.360;2023-07-08T04:02:29;5.50;;;5.00;;
79128;SDS011;68529;43.286;23.360;2023-07-08T04:04:54;7.10;;;5.88;;
79128;SDS011;68529;43.286;23.360;2023-07-08T04:07:19;6.45;;;5.10;;
79128;SDS011;68529;43.286;23.360;2023-07-08T04:09:45;7.18;;;5.18;;
79128;SDS011;68529;43.286;23.360;2023-07-08T04:12:15;6.15;;;5.55;;
79128;SDS011;68529;43.286;23.360;2023-07-08T04:14:40;5.85;;;5.07;;
79128;SDS011;68529;43.286;23.360;2023-07-08T04:17:07;6.47;;;5.97;;
79128;SDS011;68529;43.286;23.360;2023-07-08T04:19:34;6.35;;;5.85;;
79128;SDS011;68529;43.286;23.360;2023-07-08T04:22:00;7.70;;;6.22;;
79128;SDS011;68529;43.286;23.360;2023-07-08T04:24:26;7.68;;;5.70;;
79128;SDS011;68529;43.286;23.360;2023-07-08T04:26:52;6.75;;;5.60;;
79128;SDS011;68529;43.286;23.360;2023-07-08T04:29:19;6.00;;;5.40;;
79128;SDS011;68529;43.286;23.360;2023-07-08T04:31:46;5.60;;;5.10;;
79128;SDS011;68529;43.286;23.360;2023-07-08T04:34:11;6.82;;;5.95;;
79128;SDS011;68529;43.286;23.360;2023-07-08T04:36:38;9.43;;;5.43;;
79128;SDS011;68529;43.286;23.360;2023-07-08T04:39:04;6.15;;;5.40;;
79128;SDS011;68529;43.286;23.360;2023-07-08T04:41:30;5.57;;;5.13;;
79128;SDS011;68529;43.286;23.360;2023-07-08T04:43:57;5.63;;;5.13;;
79128;SDS011;68529;43.286;23.360;2023-07-08T04:46:37;6.00;;;5.50;;
79128;SDS011;68529;43.286;23.360;2023-07-08T04:49:09;6.15;;;5.55;;
79128;SDS011;68529;43.286;23.360;2023-07-08T04:51:36;5.35;;;4.95;;
79128;SDS011;68529;43.286;23.360;2023-07-08T04:54:02;5.40;;;4.90;;
79128;SDS011;68529;43.286;23.360;2023-07-08T04:56:37;6.35;;;5.75;;
79128;SDS011;68529;43.286;23.360;2023-07-08T04:59:22;7.20;;;5.55;;
79128;SDS011;68529;43.286;23.360;2023-07-08T05:01:48;6.05;;;5.57;;
79128;SDS011;68529;43.286;23.360;2023-07-08T05:04:15;5.72;;;5.22;;
79128;SDS011;68529;43.286;23.360;2023-07-08T05:06:42;5.28;;;4.78;;
79128;SDS011;68529;43.286;23.360;2023-07-08T05:09:08;5.38;;;4.88;;
79128;SDS011;68529;43.286;23.360;2023-07-08T05:11:34;6.70;;;4.57;;
79128;SDS011;68529;43.286;23.360;2023-07-08T05:14:00;3.88;;;3.53;;
79128;SDS011;68529;43.286;23.360;2023-07-08T05:16:27;6.10;;;4.53;;
79128;SDS011;68529;43.286;23.360;2023-07-08T05:18:52;4.55;;;4.15;;
79128;SDS011;68529;43.286;23.360;2023-07-08T05:21:18;4.25;;;3.90;;
79128;SDS011;68529;43.286;23.360;2023-07-08T05:23:45;4.18;;;3.78;;
79128;SDS011;68529;43.286;23.360;2023-07-08T05:26:11;4.05;;;3.25;;
79128;SDS011;68529;43.286;23.360;2023-07-08T05:28:37;6.85;;;3.85;;
79128;SDS011;68529;43.286;23.360;2023-07-08T05:31:03;4.28;;;3.65;;
79128;SDS011;68529;43.286;23.360;2023-07-08T05:33:29;3.45;;;3.13;;
79128;SDS011;68529;43.286;23.360;2023-07-08T05:35:56;4.72;;;3.00;;
79128;SDS011;68529;43.286;23.360;2023-07-08T05:38:22;3.75;;;3.45;;
79128;SDS011;68529;43.286;23.360;2023-07-08T05:40:49;4.22;;;3.80;;
79128;SDS011;68529;43.286;23.360;2023-07-08T05:43:16;4.18;;;3.88;;
79128;SDS011;68529;43.286;23.360;2023-07-08T05:45:43;4.15;;;3.85;;
79128;SDS011;68529;43.286;23.360;2023-07-08T05:48:09;3.78;;;3.45;;
79128;SDS011;68529;43.286;23.360;2023-07-08T05:50:35;4.57;;;3.53;;
79128;SDS011;68529;43.286;23.360;2023-07-08T05:53:00;4.50;;;3.47;;
79128;SDS011;68529;43.286;23.360;2023-07-08T05:55:25;3.85;;;3.55;;
79128;SDS011;68529;43.286;23.360;2023-07-08T05:57:51;3.80;;;3.50;;
79128;SDS011;68529;43.286;23.360;2023-07-08T06:00:16;3.63;;;3.33;;
79128;SDS011;68529;43.286;23.360;2023-07-08T06:02:42;3.90;;;3.60;;
79128;SDS011;68529;43.286;23.360;2023-07-08T06:05:07;3.67;;;3.38;;
79128;SDS011;68529;43.286;23.360;2023-07-08T06:07:33;3.97;;;3.50;;
79128;SDS011;68529;43.286;23.360;2023-07-08T06:09:59;3.88;;;3.05;;
79128;SDS011;68529;43.286;23.360;2023-07-08T06:12:24;3.80;;;3.38;;
79128;SDS011;68529;43.286;23.360;2023-07-08T06:14:50;3.33;;;3.13;;
79128;SDS011;68529;43.286;23.360;2023-07-08T06:17:16;4.10;;;3.53;;
79128;SDS011;68529;43.286;23.360;2023-07-08T06:19:42;3.80;;;3.15;;
79128;SDS011;68529;43.286;23.360;2023-07-08T06:22:08;3.88;;;3.40;;
79128;SDS011;68529;43.286;23.360;2023-07-08T06:24:33;51.17;;;6.30;;
79128;SDS011;68529;43.286;23.360;2023-07-08T06:26:59;3.55;;;2.95;;
79128;SDS011;68529;43.286;23.360;2023-07-08T06:29:25;3.67;;;3.17;;
79128;SDS011;68529;43.286;23.360;2023-07-08T06:31:51;3.20;;;2.90;;
79128;SDS011;68529;43.286;23.360;2023-07-08T06:34:17;3.97;;;3.15;;
79128;SDS011;68529;43.286;23.360;2023-07-08T06:36:43;3.65;;;3.20;;
79128;SDS011;68529;43.286;23.360;2023-07-08T06:39:09;4.13;;;3.30;;
79128;SDS011;68529;43.286;23.360;2023-07-08T06:41:36;3.53;;;3.17;;
79128;SDS011;68529;43.286;23.360;2023-07-08T06:44:02;4.20;;;3.53;;
79128;SDS011;68529;43.286;23.360;2023-07-08T06:46:28;10.07;;;3.40;;
79128;SDS011;68529;43.286;23.360;2023-07-08T06:48:54;4.95;;;3.20;;
79128;SDS011;68529;43.286;23.360;2023-07-08T06:51:19;3.83;;;3.53;;
79128;SDS011;68529;43.286;23.360;2023-07-08T06:53:44;4.57;;;3.50;;
79128;SDS011;68529;43.286;23.360;2023-07-08T06:56:10;7.28;;;3.35;;
79128;SDS011;68529;43.286;23.360;2023-07-08T06:58:35;3.80;;;3.45;;
79128;SDS011;68529;43.286;23.360;2023-07-08T07:01:01;6.28;;;5.40;;
79128;SDS011;68529;43.286;23.360;2023-07-08T07:03:26;6.00;;;4.05;;
79128;SDS011;68529;43.286;23.360;2023-07-08T07:05:51;6.20;;;3.83;;
79128;SDS011;68529;43.286;23.360;2023-07-08T07:08:17;6.50;;;3.40;;
79128;SDS011;68529;43.286;23.360;2023-07-08T07:10:42;8.13;;;3.30;;
79128;SDS011;68529;43.286;23.360;2023-07-08T07:13:08;7.65;;;3.50;;
79128;SDS011;68529;43.286;23.360;2023-07-08T07:15:33;4.82;;;3.35;;
79128;SDS011;68529;43.286;23.360;2023-07-08T07:17:59;5.53;;;3.92;;
79128;SDS011;68529;43.286;23.360;2023-07-08T07:20:25;12.20;;;10.70;;
79128;SDS011;68529;43.286;23.360;2023-07-08T07:22:51;6.75;;;4.80;;
79128;SDS011;68529;43.286;23.360;2023-07-08T07:25:16;5.82;;;4.22;;
79128;SDS011;68529;43.286;23.360;2023-07-08T07:27:43;5.60;;;3.95;;
79128;SDS011;68529;43.286;23.360;2023-07-08T07:30:08;5.35;;;3.45;;
79128;SDS011;68529;43.286;23.360;2023-07-08T07:32:38;4.20;;;3.78;;
79128;SDS011;68529;43.286;23.360;2023-07-08T07:35:04;4.20;;;3.80;;
79128;SDS011;68529;43.286;23.360;2023-07-08T07:37:30;4.18;;;3.25;;
79128;SDS011;68529;43.286;23.360;2023-07-08T07:39:55;3.67;;;3.38;;
79128;SDS011;68529;43.286;23.360;2023-07-08T07:42:21;3.97;;;3.53;;
79128;SDS011;68529;43.286;23.360;2023-07-08T07:44:46;3.47;;;3.17;;
79128;SDS011;68529;43.286;23.360;2023-07-08T07:47:12;5.60;;;3.40;;
79128;SDS011;68529;43.286;23.360;2023-07-08T07:49:38;6.63;;;3.38;;
79128;SDS011;68529;43.286;23.360;2023-07-08T07:52:05;6.45;;;3.67;;
79128;SDS011;68529;43.286;23.360;2023-07-08T07:54:30;5.57;;;3.72;;
79128;SDS011;68529;43.286;23.360;2023-07-08T07:56:56;5.82;;;3.90;;
79128;SDS011;68529;43.286;23.360;2023-07-08T07:59:22;3.85;;;3.55;;
79128;SDS011;68529;43.286;23.360;2023-07-08T08:01:48;5.38;;;3.47;;
79128;SDS011;68529;43.286;23.360;2023-07-08T08:04:13;8.40;;;3.70;;
79128;SDS011;68529;43.286;23.360;2023-07-08T08:06:38;4.35;;;3.95;;
79128;SDS011;68529;43.286;23.360;2023-07-08T08:09:04;6.88;;;3.80;;
79128;SDS011;68529;43.286;23.360;2023-07-08T08:11:31;4.70;;;3.33;;
79128;SDS011;68529;43.286;23.360;2023-07-08T08:13:57;3.80;;;3.40;;
79128;SDS011;68529;43.286;23.360;2023-07-08T08:16:23;7.07;;;3.90;;
79128;SDS011;68529;43.286;23.360;2023-07-08T08:18:48;4.10;;;3.80;;
79128;SDS011;68529;43.286;23.360;2023-07-08T08:21:14;6.63;;;3.95;;
79128;SDS011;68529;43.286;23.360;2023-07-08T08:23:40;6.53;;;4.20;;
79128;SDS011;68529;43.286;23.360;2023-07-08T08:26:05;8.02;;;4.68;;
79128;SDS011;68529;43.286;23.360;2023-07-08T08:28:30;7.65;;;4.70;;
79128;SDS011;68529;43.286;23.360;2023-07-08T08:30:56;7.75;;;4.93;;
79128;SDS011;68529;43.286;23.360;2023-07-08T08:33:22;5.43;;;3.78;;
79128;SDS011;68529;43.286;23.360;2023-07-08T08:35:47;4.30;;;3.90;;
79128;SDS011;68529;43.286;23.360;2023-07-08T08:38:13;4.82;;;3.67;;
79128;SDS011;68529;43.286;23.360;2023-07-08T08:40:39;6.32;;;3.95;;
79128;SDS011;68529;43.286;23.360;2023-07-08T08:43:16;5.68;;;3.75;;
79128;SDS011;68529;43.286;23.360;2023-07-08T08:45:53;5.18;;;4.22;;
79128;SDS011;68529;43.286;23.360;2023-07-08T08:48:45;4.38;;;4.00;;
79128;SDS011;68529;43.286;23.360;2023-07-08T08:51:21;5.97;;;4.65;;
79128;SDS011;68529;43.286;23.360;2023-07-08T08:53:50;9.70;;;6.85;;
79128;SDS011;68529;43.286;23.360;2023-07-08T08:56:22;9.70;;;8.25;;
79128;SDS011;68529;43.286;23.360;2023-07-08T08:59:13;7.30;;;6.60;;
79128;SDS011;68529;43.286;23.360;2023-07-08T09:01:44;4.78;;;4.20;;
79128;SDS011;68529;43.286;23.360;2023-07-08T09:04:12;6.00;;;5.50;;
79128;SDS011;68529;43.286;23.360;2023-07-08T09:06:44;6.35;;;5.38;;
79128;SDS011;68529;43.286;23.360;2023-07-08T09:09:21;4.78;;;4.38;;
79128;SDS011;68529;43.286;23.360;2023-07-08T09:12:12;4.25;;;3.88;;
79128;SDS011;68529;43.286;23.360;2023-07-08T09:14:43;5.30;;;3.95;;
79128;SDS011;68529;43.286;23.360;2023-07-08T09:19:44;23.88;;;6.78;;
79128;SDS011;68529;43.286;23.360;2023-07-08T09:22:35;6.57;;;5.53;;
79128;SDS011;68529;43.286;23.360;2023-07-08T09:28:12;4.75;;;3.63;;
79128;SDS011;68529;43.286;23.360;2023-07-08T09:30:38;12.25;;;4.32;;
79128;SDS011;68529;43.286;23.360;2023-07-08T09:33:04;4.13;;;3.72;;
79128;SDS011;68529;43.286;23.360;2023-07-08T09:35:46;4.53;;;4.07;;
79128;SDS011;68529;43.286;23.360;2023-07-08T09:38:14;5.22;;;3.90;;
79128;SDS011;68529;43.286;23.360;2023-07-08T09:40:44;4.20;;;3.65;;
79128;SDS011;68529;43.286;23.360;2023-07-08T09:43:27;10.48;;;5.78;;
79128;SDS011;68529;43.286;23.360;2023-07-08T09:46:01;4.95;;;4.00;;
79128;SDS011;68529;43.286;23.360;2023-07-08T09:48:34;3.97;;;3.58;;
79128;SDS011;68529;43.286;23.360;2023-07-08T09:51:00;25.52;;;17.80;;
79128;SDS011;68529;43.286;23.360;2023-07-08T09:53:27;13.98;;;11.00;;
79128;SDS011;68529;43.286;23.360;2023-07-08T09:55:53;12.27;;;10.00;;
79128;SDS011;68529;43.286;23.360;2023-07-08T09:58:24;9.50;;;8.60;;
79128;SDS011;68529;43.286;23.360;2023-07-08T10:01:10;11.07;;;9.98;;
79128;SDS011;68529;43.286;23.360;2023-07-08T10:03:38;9.02;;;7.15;;
79128;SDS011;68529;43.286;23.360;2023-07-08T10:06:14;5.10;;;4.03;;
79128;SDS011;68529;43.286;23.360;2023-07-08T10:08:44;13.77;;;10.88;;
79128;SDS011;68529;43.286;23.360;2023-07-08T10:11:27;9.45;;;7.75;;
79128;SDS011;68529;43.286;23.360;2023-07-08T10:14:01;5.85;;;5.35;;
79128;SDS011;68529;43.286;23.360;2023-07-08T10:16:34;7.30;;;6.57;;
79128;SDS011;68529;43.286;23.360;2023-07-08T10:19:00;15.50;;;7.07;;
79128;SDS011;68529;43.286;23.360;2023-07-08T10:21:31;10.68;;;7.97;;
79128;SDS011;68529;43.286;23.360;2023-07-08T10:26:36;5.00;;;4.63;;
79128;SDS011;68529;43.286;23.360;2023-07-08T10:29:14;9.68;;;7.85;;
79128;SDS011;68529;43.286;23.360;2023-07-08T10:40:15;4.55;;;4.13;;
79128;SDS011;68529;43.286;23.360;2023-07-08T10:42:49;4.30;;;3.90;;
79128;SDS011;68529;43.286;23.360;2023-07-08T10:45:53;4.50;;;4.10;;
79128;SDS011;68529;43.286;23.360;2023-07-08T10:56:55;6.43;;;5.45;;
79128;SDS011;68529;43.286;23.360;2023-07-08T11:07:05;4.20;;;3.90;;
79128;SDS011;68529;43.286;23.360;2023-07-08T11:09:48;4.32;;;4.03;;
79128;SDS011;68529;43.286;23.360;2023-07-08T11:18:02;3.92;;;3.63;;
79128;SDS011;68529;43.286;23.360;2023-07-08T11:20:40;4.25;;;3.95;;
79128;SDS011;68529;43.286;23.360;2023-07-08T11:26:05;6.40;;;5.90;;
79128;SDS011;68529;43.286;23.360;2023-07-08T11:28:39;7.53;;;3.90;;
79128;SDS011;68529;43.286;23.360;2023-07-08T11:31:04;3.70;;;3.40;;
79128;SDS011;68529;43.286;23.360;2023-07-08T11:33:31;3.70;;;3.35;;
79128;SDS011;68529;43.286;23.360;2023-07-08T11:35:58;3.55;;;3.30;;
79128;SDS011;68529;43.286;23.360;2023-07-08T11:38:25;3.70;;;3.20;;
79128;SDS011;68529;43.286;23.360;2023-07-08T11:40:59;17.55;;;4.05;;
79128;SDS011;68529;43.286;23.360;2023-07-08T11:46:27;12.38;;;3.42;;
79128;SDS011;68529;43.286;23.360;2023-07-08T11:49:02;3.38;;;3.17;;
79128;SDS011;68529;43.286;23.360;2023-07-08T11:51:37;3.60;;;3.35;;
79128;SDS011;68529;43.286;23.360;2023-07-08T11:54:17;4.00;;;3.70;;
79128;SDS011;68529;43.286;23.360;2023-07-08T11:56:49;3.60;;;3.30;;
79128;SDS011;68529;43.286;23.360;2023-07-08T11:59:21;6.95;;;3.03;;
79128;SDS011;68529;43.286;23.360;2023-07-08T12:04:31;3.55;;;3.22;;
79128;SDS011;68529;43.286;23.360;2023-07-08T12:09:46;3.75;;;3.45;;
79128;SDS011;68529;43.286;23.360;2023-07-08T12:12:21;3.47;;;3.22;;
79128;SDS011;68529;43.286;23.360;2023-07-08T12:14:50;3.83;;;3.30;;
79128;SDS011;68529;43.286;23.360;2023-07-08T12:17:18;5.10;;;3.22;;
79128;SDS011;68529;43.286;23.360;2023-07-08T12:19:45;3.10;;;2.75;;
79128;SDS011;68529;43.286;23.360;2023-07-08T12:22:13;4.15;;;3.25;;
79128;SDS011;68529;43.286;23.360;2023-07-08T12:24:39;3.22;;;2.85;;
79128;SDS011;68529;43.286;23.360;2023-07-08T12:27:07;3.58;;;2.95;;
79128;SDS011;68529;43.286;23.360;2023-07-08T12:29:34;3.42;;;3.13;;
79128;SDS011;68529;43.286;23.360;2023-07-08T12:31:59;4.30;;;2.97;;
79128;SDS011;68529;43.286;23.360;2023-07-08T12:34:25;3.15;;;2.80;;
79128;SDS011;68529;43.286;23.360;2023-07-08T12:36:51;5.18;;;2.97;;
79128;SDS011;68529;43.286;23.360;2023-07-08T12:39:17;3.80;;;2.85;;
79128;SDS011;68529;43.286;23.360;2023-07-08T12:41:44;3.42;;;3.13;;
79128;SDS011;68529;43.286;23.360;2023-07-08T12:44:14;3.40;;;2.95;;
79128;SDS011;68529;43.286;23.360;2023-07-08T12:46:47;3.70;;;2.75;;
79128;SDS011;68529;43.286;23.360;2023-07-08T12:49:14;3.35;;;2.90;;
79128;SDS011;68529;43.286;23.360;2023-07-08T12:51:42;4.40;;;3.15;;
79128;SDS011;68529;43.286;23.360;2023-07-08T12:54:09;3.30;;;2.45;;
79128;SDS011;68529;43.286;23.360;2023-07-08T12:56:35;2.70;;;2.50;;
79128;SDS011;68529;43.286;23.360;2023-07-08T12:59:02;3.13;;;2.53;;
79128;SDS011;68529;43.286;23.360;2023-07-08T13:01:30;3.50;;;2.65;;
79128;SDS011;68529;43.286;23.360;2023-07-08T13:03:59;3.72;;;2.60;;
79128;SDS011;68529;43.286;23.360;2023-07-08T13:06:31;3.92;;;2.80;;
79128;SDS011;68529;43.286;23.360;2023-07-08T13:09:00;3.45;;;2.90;;
79128;SDS011;68529;43.286;23.360;2023-07-08T13:11:33;3.63;;;2.80;;
79128;SDS011;68529;43.286;23.360;2023-07-08T13:14:00;3.15;;;2.85;;
79128;SDS011;68529;43.286;23.360;2023-07-08T13:16:31;3.90;;;3.10;;
79128;SDS011;68529;43.286;23.360;2023-07-08T13:18:58;3.20;;;3.00;;
79128;SDS011;68529;43.286;23.360;2023-07-08T13:21:24;4.32;;;2.53;;
79128;SDS011;68529;43.286;23.360;2023-07-08T13:23:52;3.25;;;2.92;;
79128;SDS011;68529;43.286;23.360;2023-07-08T13:26:19;3.03;;;2.70;;
79128;SDS011;68529;43.286;23.360;2023-07-08T13:28:48;3.47;;;2.50;;
79128;SDS011;68529;43.286;23.360;2023-07-08T13:33:51;4.00;;;2.75;;
79128;SDS011;68529;43.286;23.360;2023-07-08T13:36:19;5.10;;;3.00;;
79128;SDS011;68529;43.286;23.360;2023-07-08T13:38:50;6.07;;;2.72;;
79128;SDS011;68529;43.286;23.360;2023-07-08T13:41:20;2.67;;;2.45;;
79128;SDS011;68529;43.286;23.360;2023-07-08T13:43:47;4.18;;;2.70;;
79128;SDS011;68529;43.286;23.360;2023-07-08T13:49:22;3.47;;;2.85;;
79128;SDS011;68529;43.286;23.360;2023-07-08T13:52:04;2.92;;;2.58;;
79128;SDS011;68529;43.286;23.360;2023-07-08T13:57:19;6.22;;;2.47;;
79128;SDS011;68529;43.286;23.360;2023-07-08T13:59:47;4.18;;;3.13;;
79128;SDS011;68529;43.286;23.360;2023-07-08T14:02:17;6.65;;;2.80;;
79128;SDS011;68529;43.286;23.360;2023-07-08T14:04:48;4.57;;;2.80;;
79128;SDS011;68529;43.286;23.360;2023-07-08T14:07:16;4.40;;;2.85;;
79128;SDS011;68529;43.286;23.360;2023-07-08T14:09:44;3.25;;;2.85;;
79128;SDS011;68529;43.286;23.360;2023-07-08T14:12:09;5.70;;;3.30;;
79128;SDS011;68529;43.286;23.360;2023-07-08T14:14:35;3.65;;;3.08;;
79128;SDS011;68529;43.286;23.360;2023-07-08T14:17:00;5.55;;;2.90;;
79128;SDS011;68529;43.286;23.360;2023-07-08T14:19:27;5.30;;;3.05;;
79128;SDS011;68529;43.286;23.360;2023-07-08T14:21:56;3.75;;;2.92;;
79128;SDS011;68529;43.286;23.360;2023-07-08T14:24:42;4.90;;;2.75;;
79128;SDS011;68529;43.286;23.360;2023-07-08T14:27:08;3.80;;;2.72;;
79128;SDS011;68529;43.286;23.360;2023-07-08T14:29:37;3.97;;;2.88;;
79128;SDS011;68529;43.286;23.360;2023-07-08T14:32:03;3.83;;;2.65;;
79128;SDS011;68529;43.286;23.360;2023-07-08T14:34:28;7.30;;;3.38;;
79128;SDS011;68529;43.286;23.360;2023-07-08T14:36:54;4.30;;;3.10;;
79128;SDS011;68529;43.286;23.360;2023-07-08T14:39:20;4.70;;;3.13;;
79128;SDS011;68529;43.286;23.360;2023-07-08T14:41:46;3.58;;;2.85;;
79128;SDS011;68529;43.286;23.360;2023-07-08T14:44:24;2.97;;;2.78;;
79128;SDS011;68529;43.286;23.360;2023-07-08T14:46:51;3.50;;;2.95;;
79128;SDS011;68529;43.286;23.360;2023-07-08T14:49:22;3.40;;;3.17;;
79128;SDS011;68529;43.286;23.360;2023-07-08T14:51:50;6.32;;;2.95;;
79128;SDS011;68529;43.286;23.360;2023-07-08T14:54:17;3.70;;;3.03;;
79128;SDS011;68529;43.286;23.360;2023-07-08T14:56:43;4.30;;;2.90;;
79128;SDS011;68529;43.286;23.360;2023-07-08T14:59:13;3.25;;;2.78;;
79128;SDS011;68529;43.286;23.360;2023-07-08T15:01:43;5.10;;;2.95;;
79128;SDS011;68529;43.286;23.360;2023-07-08T15:04:12;3.75;;;3.25;;
79128;SDS011;68529;43.286;23.360;2023-07-08T15:06:40;2.97;;;2.72;;
79128;SDS011;68529;43.286;23.360;2023-07-08T15:09:07;3.60;;;3.13;;
79128;SDS011;68529;43.286;23.360;2023-07-08T15:11:32;4.97;;;3.15;;
79128;SDS011;68529;43.286;23.360;2023-07-08T15:13:59;3.72;;;3.00;;
79128;SDS011;68529;43.286;23.360;2023-07-08T15:16:25;3.22;;;2.78;;
79128;SDS011;68529;43.286;23.360;2023-07-08T15:18:51;3.40;;;3.10;;
79128;SDS011;68529;43.286;23.360;2023-07-08T15:21:16;3.65;;;2.83;;
79128;SDS011;68529;43.286;23.360;2023-07-08T15:23:42;4.68;;;3.50;;
79128;SDS011;68529;43.286;23.360;2023-07-08T15:26:11;3.47;;;3.17;;
79128;SDS011;68529;43.286;23.360;2023-07-08T15:28:41;4.03;;;3.03;;
79128;SDS011;68529;43.286;23.360;2023-07-08T15:31:20;2.90;;;2.70;;
79128;SDS011;68529;43.286;23.360;2023-07-08T15:33:50;3.35;;;3.05;;
79128;SDS011;68529;43.286;23.360;2023-07-08T15:36:16;3.95;;;3.28;;
79128;SDS011;68529;43.286;23.360;2023-07-08T15:38:42;7.22;;;3.70;;
79128;SDS011;68529;43.286;23.360;2023-07-08T15:41:10;6.07;;;5.22;;
79128;SDS011;68529;43.286;23.360;2023-07-08T15:43:43;10.75;;;6.47;;
79128;SDS011;68529;43.286;23.360;2023-07-08T15:46:08;8.55;;;5.45;;
79128;SDS011;68529;43.286;23.360;2023-07-08T15:48:34;4.22;;;3.78;;